createdAt,value
2023-02-02T00:00:00.432Z,101890
2023-02-02T00:01:00.516Z,101890
2023-02-02T00:02:00.972Z,101890
2023-02-02T00:03:00.497Z,101890
2023-02-02T00:04:00.918Z,101890
2023-02-02T00:05:00.432Z,101890
2023-02-02T00:06:00.461Z,101890
2023-02-02T00:07:01.263Z,101890
2023-02-02T00:08:00.419Z,101890
2023-02-02T00:09:01.096Z,101880
2023-02-02T00:10:00.447Z,101880
2023-02-02T00:11:00.426Z,101890
2023-02-02T00:12:00.771Z,101890
2023-02-02T00:13:00.405Z,101890
2023-02-02T00:14:00.437Z,101890
2023-02-02T00:15:00.440Z,101890
2023-02-02T00:16:10.412Z,101890
2023-02-02T00:17:00.490Z,101890
2023-02-02T00:18:00.440Z,101890
2023-02-02T00:19:03.002Z,101890
2023-02-02T00:20:00.402Z,101890
2023-02-02T00:21:00.430Z,101880
2023-02-02T00:22:00.454Z,101880
2023-02-02T00:23:00.852Z,101890
2023-02-02T00:24:00.754Z,101890
2023-02-02T00:25:00.542Z,101890
2023-02-02T00:26:00.441Z,101890
2023-02-02T00:27:00.464Z,101890
2023-02-02T00:28:00.528Z,101890
2023-02-02T00:29:00.430Z,101890
2023-02-02T00:30:00.420Z,101890
2023-02-02T00:31:00.482Z,101900
2023-02-02T00:32:00.446Z,101900
2023-02-02T00:33:00.415Z,101890
2023-02-02T00:34:00.407Z,101890
2023-02-02T00:35:00.434Z,101890
2023-02-02T00:36:00.418Z,101890
2023-02-02T00:37:00.428Z,101890
2023-02-02T00:38:00.803Z,101890
2023-02-02T00:39:00.436Z,101890
2023-02-02T00:40:00.421Z,101890
2023-02-02T00:41:00.410Z,101900
2023-02-02T00:42:00.412Z,101900
2023-02-02T00:43:00.438Z,101900
2023-02-02T00:44:00.483Z,101900
2023-02-02T00:45:00.906Z,101900
2023-02-02T00:46:00.853Z,101900
2023-02-02T00:47:00.511Z,101890
2023-02-02T00:48:00.443Z,101890
2023-02-02T00:49:00.425Z,101890
2023-02-02T00:50:00.408Z,101890
2023-02-02T00:51:00.429Z,101900
2023-02-02T00:52:00.569Z,101900
2023-02-02T00:53:00.402Z,101900
2023-02-02T00:54:00.464Z,101900
2023-02-02T00:55:00.463Z,101890
2023-02-02T00:56:00.435Z,101890
2023-02-02T00:57:00.437Z,101890
2023-02-02T00:58:00.431Z,101890
2023-02-02T00:59:00.482Z,101900
2023-02-02T01:00:00.903Z,101900
2023-02-02T01:01:00.543Z,101890
2023-02-02T01:02:00.453Z,101890
2023-02-02T01:03:00.591Z,101900
2023-02-02T01:04:00.451Z,101900
2023-02-02T01:05:00.753Z,101890
2023-02-02T01:06:00.433Z,101890
2023-02-02T01:07:00.407Z,101890
2023-02-02T01:08:00.829Z,101890
2023-02-02T01:09:00.429Z,101890
2023-02-02T01:10:00.492Z,101890
2023-02-02T01:11:00.410Z,101890
2023-02-02T01:12:00.468Z,101890
2023-02-02T01:13:00.414Z,101890
2023-02-02T01:14:00.438Z,101890
2023-02-02T01:15:00.891Z,101890
2023-02-02T01:16:01.401Z,101890
2023-02-02T01:17:00.431Z,101900
2023-02-02T01:18:00.426Z,101900
2023-02-02T01:19:00.463Z,101900
2023-02-02T01:20:00.460Z,101900
2023-02-02T01:21:01.917Z,101890
2023-02-02T01:22:02.702Z,101890
2023-02-02T01:23:00.444Z,101890
2023-02-02T01:24:00.423Z,101890
2023-02-02T01:25:00.491Z,101890
2023-02-02T01:26:01.249Z,101890
2023-02-02T01:27:00.619Z,101890
2023-02-02T01:28:00.415Z,101890
2023-02-02T01:29:00.433Z,101890
2023-02-02T01:30:00.410Z,101890
2023-02-02T01:31:05.346Z,101890
2023-02-02T01:32:00.526Z,101890
2023-02-02T01:33:00.411Z,101890
2023-02-02T01:34:00.431Z,101890
2023-02-02T01:35:00.464Z,101890
2023-02-02T01:36:03.339Z,101890
2023-02-02T01:37:00.457Z,101890
2023-02-02T01:38:00.446Z,101890
2023-02-02T01:39:00.467Z,101890
2023-02-02T01:40:00.451Z,101890
2023-02-02T01:41:00.871Z,101890
2023-02-02T01:42:00.444Z,101890
2023-02-02T01:43:00.438Z,101890
2023-02-02T01:44:01.449Z,101890
2023-02-02T01:45:04.135Z,101900
2023-02-02T01:46:00.502Z,101900
2023-02-02T01:47:00.427Z,101900
2023-02-02T01:48:00.546Z,101900
2023-02-02T01:49:00.393Z,101890
2023-02-02T01:50:01.605Z,101890
2023-02-02T01:51:05.883Z,101900
2023-02-02T01:52:00.549Z,101900
2023-02-02T01:53:01.828Z,101900
2023-02-02T01:54:01.479Z,101900
2023-02-02T01:55:03.236Z,101900
2023-02-02T01:56:02.227Z,101900
2023-02-02T01:57:04.332Z,101900
2023-02-02T01:58:10.345Z,101900
2023-02-02T01:59:01.387Z,101900
2023-02-02T02:00:02.720Z,101900
2023-02-02T02:01:00.471Z,101900
2023-02-02T02:02:01.317Z,101900
2023-02-02T02:03:03.600Z,101900
2023-02-02T02:04:00.499Z,101900
2023-02-02T02:05:01.801Z,101910
2023-02-02T02:06:03.663Z,101910
2023-02-02T02:07:01.699Z,101900
2023-02-02T02:08:10.389Z,101900
2023-02-02T02:09:01.985Z,101900
2023-02-02T02:10:00.471Z,101900
2023-02-02T02:11:00.496Z,101900
2023-02-02T02:12:00.412Z,101900
2023-02-02T02:13:00.456Z,101900
2023-02-02T02:14:02.042Z,101900
2023-02-02T02:15:00.472Z,101900
2023-02-02T02:16:05.284Z,101900
2023-02-02T02:17:10.350Z,101910
2023-02-02T02:18:10.107Z,101910
2023-02-02T02:19:00.433Z,101900
2023-02-02T02:20:10.371Z,101900
2023-02-02T02:21:10.359Z,101900
2023-02-02T02:22:10.374Z,101900
2023-02-02T02:23:10.371Z,101900
2023-02-02T02:24:10.345Z,101900
2023-02-02T02:25:07.852Z,101900
2023-02-02T02:26:10.352Z,101900
2023-02-02T02:27:10.374Z,101900
2023-02-02T02:28:01.026Z,101900
2023-02-02T02:29:07.727Z,101890
2023-02-02T02:30:10.379Z,101890
2023-02-02T02:31:10.436Z,101890
2023-02-02T02:32:03.720Z,101890
2023-02-02T02:33:00.432Z,101890
2023-02-02T02:34:10.369Z,101890
2023-02-02T02:35:00.431Z,101900
2023-02-02T02:36:00.436Z,101900
2023-02-02T02:37:03.698Z,101900
2023-02-02T02:38:06.151Z,101900
2023-02-02T02:39:08.504Z,101900
2023-02-02T02:40:05.575Z,101900
2023-02-02T02:41:02.785Z,101900
2023-02-02T02:42:06.719Z,101900
2023-02-02T02:43:04.782Z,101900
2023-02-02T02:44:10.375Z,101900
2023-02-02T02:45:01.428Z,101900
2023-02-02T02:46:01.347Z,101900
2023-02-02T02:47:00.899Z,101900
2023-02-02T02:48:01.739Z,101900
2023-02-02T02:49:00.812Z,101900
2023-02-02T02:50:00.569Z,101900
2023-02-02T02:51:10.365Z,101900
2023-02-02T02:52:00.411Z,101900
2023-02-02T02:53:03.802Z,101900
2023-02-02T02:54:00.589Z,101900
2023-02-02T02:55:01.069Z,101910
2023-02-02T02:56:08.100Z,101910
2023-02-02T02:57:10.339Z,101900
2023-02-02T02:58:06.045Z,101900
2023-02-02T02:59:10.345Z,101910
2023-02-02T03:00:08.450Z,101910
2023-02-02T03:01:06.584Z,101910
2023-02-02T03:02:10.364Z,101910
2023-02-02T03:03:03.708Z,101900
2023-02-02T03:04:05.996Z,101900
2023-02-02T03:05:12.150Z,101900
2023-02-02T03:06:06.700Z,101900
2023-02-02T03:07:04.276Z,101900
2023-02-02T03:08:10.362Z,101900
2023-02-02T03:09:03.496Z,101900
2023-02-02T03:10:01.424Z,101900
2023-02-02T03:11:00.691Z,101900
2023-02-02T03:12:00.634Z,101900
2023-02-02T03:13:00.707Z,101900
2023-02-02T03:14:00.936Z,101900
2023-02-02T03:15:03.484Z,101890
2023-02-02T03:16:00.888Z,101890
2023-02-02T03:17:00.451Z,101890
2023-02-02T03:18:00.483Z,101890
2023-02-02T03:19:00.594Z,101900
2023-02-02T03:20:00.458Z,101900
2023-02-02T03:21:00.501Z,101890
2023-02-02T03:22:00.421Z,101890
2023-02-02T03:23:00.403Z,101890
2023-02-02T03:24:00.608Z,101890
2023-02-02T03:25:00.413Z,101890
2023-02-02T03:26:00.416Z,101890
2023-02-02T03:27:00.414Z,101880
2023-02-02T03:28:00.716Z,101880
2023-02-02T03:29:00.694Z,101890
2023-02-02T03:30:00.496Z,101890
2023-02-02T03:31:01.021Z,101890
2023-02-02T03:32:00.463Z,101890
2023-02-02T03:33:00.451Z,101890
2023-02-02T03:34:00.464Z,101890
2023-02-02T03:35:00.517Z,101890
2023-02-02T03:36:00.416Z,101890
2023-02-02T03:37:00.424Z,101890
2023-02-02T03:38:00.529Z,101890
2023-02-02T03:39:00.458Z,101890
2023-02-02T03:40:00.399Z,101890
2023-02-02T03:41:00.455Z,101880
2023-02-02T03:42:00.482Z,101880
2023-02-02T03:43:00.567Z,101880
2023-02-02T03:44:00.454Z,101880
2023-02-02T03:45:00.425Z,101890
2023-02-02T03:46:01.962Z,101890
2023-02-02T03:47:00.408Z,101890
2023-02-02T03:48:02.641Z,101890
2023-02-02T03:49:00.416Z,101890
2023-02-02T03:50:00.443Z,101890
2023-02-02T03:51:03.689Z,101890
2023-02-02T03:52:00.449Z,101890
2023-02-02T03:53:00.417Z,101900
2023-02-02T03:54:00.433Z,101900
2023-02-02T03:55:00.454Z,101900
2023-02-02T03:56:00.448Z,101900
2023-02-02T03:57:00.428Z,101910
2023-02-02T03:58:00.431Z,101910
2023-02-02T03:59:00.434Z,101910
2023-02-02T04:00:00.448Z,101910
2023-02-02T04:01:02.092Z,101920
2023-02-02T04:02:00.530Z,101920
2023-02-02T04:03:00.466Z,101920
2023-02-02T04:04:00.425Z,101920
2023-02-02T04:05:00.415Z,101920
2023-02-02T04:06:00.419Z,101920
2023-02-02T04:07:00.436Z,101920
2023-02-02T04:08:00.424Z,101920
2023-02-02T04:09:00.455Z,101930
2023-02-02T04:10:00.440Z,101930
2023-02-02T04:11:00.519Z,101920
2023-02-02T04:12:00.441Z,101920
2023-02-02T04:13:00.439Z,101930
2023-02-02T04:14:00.556Z,101930
2023-02-02T04:15:00.417Z,101930
2023-02-02T04:16:00.556Z,101930
2023-02-02T04:17:00.480Z,101930
2023-02-02T04:18:00.432Z,101930
2023-02-02T04:19:00.445Z,101930
2023-02-02T04:20:01.117Z,101930
2023-02-02T04:21:00.653Z,101940
2023-02-02T04:22:00.423Z,101940
2023-02-02T04:23:00.448Z,101930
2023-02-02T04:24:00.420Z,101930
2023-02-02T04:25:00.437Z,101930
2023-02-02T04:26:00.441Z,101930
2023-02-02T04:27:00.450Z,101930
2023-02-02T04:28:00.406Z,101930
2023-02-02T04:29:00.521Z,101920
2023-02-02T04:30:00.437Z,101920
2023-02-02T04:31:00.559Z,101930
2023-02-02T04:32:00.506Z,101930
2023-02-02T04:33:00.406Z,101930
2023-02-02T04:34:00.580Z,101930
2023-02-02T04:35:00.951Z,101930
2023-02-02T04:36:00.519Z,101930
2023-02-02T04:37:00.438Z,101930
2023-02-02T04:38:00.450Z,101930
2023-02-02T04:39:00.454Z,101930
2023-02-02T04:40:00.450Z,101930
2023-02-02T04:41:05.055Z,101930
2023-02-02T04:42:00.430Z,101930
2023-02-02T04:43:00.439Z,101930
2023-02-02T04:44:00.440Z,101930
2023-02-02T04:45:00.449Z,101920
2023-02-02T04:46:00.600Z,101920
2023-02-02T04:47:00.428Z,101920
2023-02-02T04:48:00.698Z,101920
2023-02-02T04:49:00.408Z,101920
2023-02-02T04:50:00.431Z,101920
2023-02-02T04:51:01.227Z,101910
2023-02-02T04:52:00.442Z,101910
2023-02-02T04:53:00.437Z,101910
2023-02-02T04:54:00.457Z,101910
2023-02-02T04:55:00.416Z,101920
2023-02-02T04:56:04.590Z,101920
2023-02-02T04:57:00.443Z,101920
2023-02-02T04:58:00.424Z,101920
2023-02-02T04:59:00.413Z,101920
2023-02-02T05:00:00.424Z,101920
2023-02-02T05:01:00.589Z,101930
2023-02-02T05:02:01.173Z,101930
2023-02-02T05:03:00.433Z,101940
2023-02-02T05:04:00.407Z,101940
2023-02-02T05:05:00.417Z,101940
2023-02-02T05:06:01.212Z,101940
2023-02-02T05:07:00.399Z,101930
2023-02-02T05:08:00.404Z,101930
2023-02-02T05:09:00.415Z,101930
2023-02-02T05:10:00.436Z,101930
2023-02-02T05:11:04.715Z,101940
2023-02-02T05:12:00.445Z,101940
2023-02-02T05:13:00.406Z,101940
2023-02-02T05:14:00.451Z,101940
2023-02-02T05:15:00.434Z,101930
2023-02-02T05:16:00.410Z,101930
2023-02-02T05:17:00.581Z,101930
2023-02-02T05:18:00.491Z,101930
2023-02-02T05:19:00.407Z,101930
2023-02-02T05:20:00.416Z,101930
2023-02-02T05:21:01.244Z,101930
2023-02-02T05:22:00.424Z,101930
2023-02-02T05:23:00.407Z,101930
2023-02-02T05:24:00.476Z,101930
2023-02-02T05:25:00.468Z,101930
2023-02-02T05:26:00.423Z,101930
2023-02-02T05:27:00.450Z,101930
2023-02-02T05:28:00.442Z,101930
2023-02-02T05:29:00.431Z,101930
2023-02-02T05:30:00.598Z,101930
2023-02-02T05:31:04.367Z,101940
2023-02-02T05:32:00.580Z,101940
2023-02-02T05:33:00.413Z,101930
2023-02-02T05:34:00.468Z,101930
2023-02-02T05:35:00.422Z,101940
2023-02-02T05:36:00.416Z,101940
2023-02-02T05:37:00.410Z,101940
2023-02-02T05:38:00.428Z,101940
2023-02-02T05:39:00.505Z,101940
2023-02-02T05:40:00.470Z,101940
2023-02-02T05:41:00.927Z,101950
2023-02-02T05:42:00.414Z,101950
2023-02-02T05:43:00.433Z,101940
2023-02-02T05:44:01.010Z,101940
2023-02-02T05:45:00.848Z,101940
2023-02-02T05:46:00.668Z,101940
2023-02-02T05:47:00.414Z,101950
2023-02-02T05:48:00.411Z,101950
2023-02-02T05:49:00.477Z,101950
2023-02-02T05:50:00.474Z,101950
2023-02-02T05:51:10.341Z,101940
2023-02-02T05:52:00.439Z,101940
2023-02-02T05:53:00.716Z,101950
2023-02-02T05:54:01.132Z,101950
2023-02-02T05:55:00.690Z,101950
2023-02-02T05:56:00.591Z,101950
2023-02-02T05:57:00.416Z,101940
2023-02-02T05:58:00.437Z,101940
2023-02-02T05:59:00.452Z,101950
2023-02-02T06:00:00.540Z,101950
2023-02-02T06:01:01.145Z,101950
2023-02-02T06:02:00.458Z,101950
2023-02-02T06:03:00.605Z,101950
2023-02-02T06:04:00.521Z,101950
2023-02-02T06:05:00.419Z,101940
2023-02-02T06:06:00.429Z,101940
2023-02-02T06:07:00.436Z,101950
2023-02-02T06:08:00.447Z,101950
2023-02-02T06:09:00.894Z,101940
2023-02-02T06:10:00.452Z,101940
2023-02-02T06:11:07.416Z,101950
2023-02-02T06:12:00.441Z,101950
2023-02-02T06:13:00.449Z,101950
2023-02-02T06:14:00.602Z,101950
2023-02-02T06:15:00.474Z,101940
2023-02-02T06:16:00.540Z,101940
2023-02-02T06:17:00.454Z,101950
2023-02-02T06:18:00.552Z,101950
2023-02-02T06:19:00.482Z,101950
2023-02-02T06:20:00.463Z,101950
2023-02-02T06:21:01.475Z,101950
2023-02-02T06:22:00.424Z,101950
2023-02-02T06:23:00.501Z,101960
2023-02-02T06:24:00.471Z,101960
2023-02-02T06:25:00.415Z,101970
2023-02-02T06:26:00.422Z,101970
2023-02-02T06:27:00.402Z,101960
2023-02-02T06:28:00.462Z,101960
2023-02-02T06:29:00.423Z,101960
2023-02-02T06:30:00.474Z,101960
2023-02-02T06:31:04.318Z,101960
2023-02-02T06:32:00.486Z,101960
2023-02-02T06:33:00.414Z,101960
2023-02-02T06:34:00.436Z,101960
2023-02-02T06:35:00.429Z,101960
2023-02-02T06:36:01.212Z,101960
2023-02-02T06:37:00.497Z,101960
2023-02-02T06:38:00.411Z,101960
2023-02-02T06:39:00.428Z,101960
2023-02-02T06:40:00.413Z,101960
2023-02-02T06:41:01.023Z,101970
2023-02-02T06:42:08.859Z,101970
2023-02-02T06:43:01.382Z,101970
2023-02-02T06:44:00.699Z,101970
2023-02-02T06:45:00.650Z,101960
2023-02-02T06:46:00.469Z,101960
2023-02-02T06:47:00.402Z,101980
2023-02-02T06:48:00.426Z,101980
2023-02-02T06:49:00.485Z,101970
2023-02-02T06:50:00.431Z,101970
2023-02-02T06:51:00.423Z,101970
2023-02-02T06:52:00.414Z,101970
2023-02-02T06:53:00.408Z,101980
2023-02-02T06:54:00.429Z,101980
2023-02-02T06:55:00.416Z,101990
2023-02-02T06:56:02.162Z,101990
2023-02-02T06:57:00.405Z,101980
2023-02-02T06:58:00.464Z,101980
2023-02-02T06:59:00.451Z,101990
2023-02-02T07:00:00.423Z,101990
2023-02-02T07:01:02.795Z,101990
2023-02-02T07:02:00.447Z,101990
2023-02-02T07:03:00.527Z,102000
2023-02-02T07:04:00.436Z,102000
2023-02-02T07:05:00.714Z,101990
2023-02-02T07:06:10.362Z,101990
2023-02-02T07:07:00.435Z,101990
2023-02-02T07:08:00.452Z,101990
2023-02-02T07:09:02.520Z,101980
2023-02-02T07:10:00.444Z,101980
2023-02-02T07:11:14.363Z,101990
2023-02-02T07:12:00.467Z,101990
2023-02-02T07:13:00.419Z,102000
2023-02-02T07:14:00.421Z,102000
2023-02-02T07:15:00.403Z,102000
2023-02-02T07:16:01.853Z,102000
2023-02-02T07:17:00.436Z,102000
2023-02-02T07:18:00.561Z,102000
2023-02-02T07:19:00.425Z,102000
2023-02-02T07:20:00.444Z,102000
2023-02-02T07:21:00.452Z,102000
2023-02-02T07:22:00.422Z,102000
2023-02-02T07:23:01.926Z,102000
2023-02-02T07:24:01.201Z,102000
2023-02-02T07:25:00.403Z,102010
2023-02-02T07:26:02.638Z,102010
2023-02-02T07:27:00.553Z,102000
2023-02-02T07:28:00.412Z,102000
2023-02-02T07:29:00.600Z,102010
2023-02-02T07:30:00.444Z,102010
2023-02-02T07:31:10.430Z,101990
2023-02-02T07:32:00.492Z,101990
2023-02-02T07:33:00.442Z,102000
2023-02-02T07:34:00.428Z,102000
2023-02-02T07:35:00.420Z,101990
2023-02-02T07:36:00.570Z,101990
2023-02-02T07:37:00.409Z,102000
2023-02-02T07:38:00.425Z,102000
2023-02-02T07:39:00.478Z,102000
2023-02-02T07:40:00.413Z,102000
2023-02-02T07:41:00.700Z,102000
2023-02-02T07:42:00.442Z,102000
2023-02-02T07:43:00.422Z,102010
2023-02-02T07:44:00.821Z,102010
2023-02-02T07:45:00.455Z,102010
2023-02-02T07:46:01.111Z,102010
2023-02-02T07:47:00.436Z,102010
2023-02-02T07:48:00.874Z,102010
2023-02-02T07:49:00.409Z,102020
2023-02-02T07:50:00.407Z,102020
2023-02-02T07:51:01.170Z,102020
2023-02-02T07:52:00.402Z,102020
2023-02-02T07:53:00.425Z,102030
2023-02-02T07:54:00.412Z,102030
2023-02-02T07:55:13.866Z,102040
2023-02-02T07:56:05.221Z,102040
2023-02-02T07:57:00.435Z,102030
2023-02-02T07:58:00.446Z,102030
2023-02-02T07:59:00.454Z,102030
2023-02-02T08:00:00.500Z,102030
2023-02-02T08:01:02.555Z,102030
2023-02-02T08:02:00.587Z,102030
2023-02-02T08:03:00.527Z,102030
2023-02-02T08:04:00.561Z,102030
2023-02-02T08:05:00.428Z,102030
2023-02-02T08:06:00.588Z,102030
2023-02-02T08:07:00.416Z,102040
2023-02-02T08:08:00.423Z,102040
2023-02-02T08:09:01.581Z,102030
2023-02-02T08:10:00.472Z,102030
2023-02-02T08:11:00.423Z,102040
2023-02-02T08:12:00.613Z,102040
2023-02-02T08:13:00.404Z,102040
2023-02-02T08:16:00.562Z,102040
2023-02-02T08:17:00.477Z,102040
2023-02-02T08:20:00.508Z,102050
2023-02-02T08:21:01.167Z,102050
2023-02-02T08:23:00.641Z,102050
2023-02-02T08:24:00.911Z,102050
2023-02-02T08:25:00.620Z,102050
2023-02-02T08:26:10.524Z,102050
2023-02-02T08:27:00.726Z,102050
2023-02-02T08:28:00.621Z,102050
2023-02-02T08:29:03.309Z,102050
2023-02-02T08:30:00.720Z,102050
2023-02-02T08:31:09.988Z,102050
2023-02-02T08:32:00.672Z,102050
2023-02-02T08:33:00.600Z,102050
2023-02-02T08:34:00.972Z,102050
2023-02-02T08:35:00.680Z,102050
2023-02-02T08:36:00.993Z,102050
2023-02-02T08:37:00.628Z,102060
2023-02-02T08:38:00.620Z,102060
2023-02-02T08:39:03.289Z,102060
2023-02-02T08:40:00.782Z,102060
2023-02-02T08:41:04.628Z,102070
2023-02-02T08:42:00.617Z,102070
2023-02-02T08:43:00.593Z,102070
2023-02-02T08:44:00.614Z,102070
2023-02-02T08:46:05.280Z,102070
2023-02-02T08:46:12.662Z,102070
2023-02-02T08:47:00.660Z,102080
2023-02-02T08:48:11.265Z,102080
2023-02-02T08:49:00.651Z,102080
2023-02-02T08:50:00.583Z,102080
2023-02-02T08:51:01.046Z,102080
2023-02-02T08:52:00.616Z,102080
2023-02-02T08:53:00.637Z,102090
2023-02-02T08:54:00.611Z,102090
2023-02-02T08:55:00.648Z,102090
2023-02-02T08:56:01.999Z,102090
2023-02-02T08:57:00.638Z,102100
2023-02-02T08:58:00.605Z,102100
2023-02-02T08:59:00.602Z,102100
2023-02-02T09:00:00.731Z,102100
2023-02-02T09:01:10.605Z,102110
2023-02-02T09:02:00.660Z,102110
2023-02-02T09:03:00.614Z,102110
2023-02-02T09:04:03.120Z,102110
2023-02-02T09:05:00.628Z,102120
2023-02-02T09:06:09.175Z,102120
2023-02-02T09:07:00.612Z,102120
2023-02-02T09:08:00.621Z,102120
2023-02-02T09:09:00.748Z,102120
2023-02-02T09:10:00.703Z,102120
2023-02-02T09:11:02.589Z,102130
2023-02-02T09:12:00.597Z,102130
2023-02-02T09:13:00.714Z,102130
2023-02-02T09:14:00.609Z,102130
2023-02-02T09:15:00.591Z,102130
2023-02-02T09:16:01.631Z,102130
2023-02-02T09:17:00.674Z,102130
2023-02-02T09:18:00.616Z,102130
2023-02-02T09:19:00.679Z,102130
2023-02-02T09:20:00.616Z,102130
2023-02-02T09:21:02.454Z,102130
2023-02-02T09:22:00.590Z,102130
2023-02-02T09:23:00.592Z,102130
2023-02-02T09:24:00.609Z,102130
2023-02-02T09:25:00.614Z,102140
2023-02-02T09:26:10.543Z,102140
2023-02-02T09:27:00.831Z,102140
2023-02-02T09:28:00.627Z,102140
2023-02-02T09:29:01.937Z,102130
2023-02-02T09:30:00.598Z,102130
2023-02-02T09:31:01.338Z,102140
2023-02-02T09:32:00.693Z,102140
2023-02-02T09:33:00.600Z,102140
2023-02-02T09:34:02.974Z,102140
2023-02-02T09:35:00.640Z,102140
2023-02-02T09:36:05.551Z,102140
2023-02-02T09:37:00.599Z,102150
2023-02-02T09:38:00.589Z,102150
2023-02-02T09:39:00.647Z,102160
2023-02-02T09:40:00.662Z,102160
2023-02-02T09:41:00.789Z,102160
2023-02-02T09:42:01.584Z,102160
2023-02-02T09:43:00.571Z,102160
2023-02-02T09:44:01.583Z,102160
2023-02-02T09:45:10.545Z,102160
2023-02-02T09:46:08.849Z,102160
2023-02-02T09:47:03.847Z,102160
2023-02-02T09:48:10.553Z,102160
2023-02-02T09:49:02.480Z,102160
2023-02-02T09:50:07.877Z,102160
2023-02-02T09:51:05.063Z,102170
2023-02-02T09:52:06.417Z,102170
2023-02-02T09:53:01.614Z,102180
2023-02-02T09:54:05.486Z,102180
2023-02-02T09:55:03.426Z,102170
2023-02-02T09:56:03.146Z,102170
2023-02-02T09:57:02.658Z,102170
2023-02-02T09:58:06.157Z,102170
2023-02-02T09:59:18.826Z,102170
2023-02-02T10:00:00.731Z,102170
2023-02-02T10:01:10.626Z,102180
2023-02-02T10:02:04.659Z,102180
2023-02-02T10:03:04.045Z,102180
2023-02-02T10:04:10.528Z,102180
2023-02-02T10:05:08.321Z,102180
2023-02-02T10:07:06.711Z,102180
2023-02-02T10:08:04.545Z,102180
2023-02-02T10:09:05.759Z,102180
2023-02-02T10:10:03.833Z,102180
2023-02-02T10:11:09.988Z,102180
2023-02-02T10:12:04.174Z,102180
2023-02-02T10:13:07.969Z,102190
2023-02-02T10:14:03.867Z,102190
2023-02-02T10:15:04.016Z,102190
2023-02-02T10:16:10.615Z,102190
2023-02-02T10:17:05.255Z,102190
2023-02-02T10:18:06.231Z,102190
2023-02-02T10:19:04.901Z,102190
2023-02-02T10:20:10.626Z,102190
2023-02-02T10:21:05.029Z,102190
2023-02-02T10:22:04.327Z,102190
2023-02-02T10:23:10.612Z,102190
2023-02-02T10:24:02.459Z,102190
2023-02-02T10:25:00.737Z,102190
2023-02-02T10:26:10.606Z,102190
2023-02-02T10:27:03.812Z,102190
2023-02-02T10:28:10.152Z,102190
2023-02-02T10:29:07.003Z,102190
2023-02-02T10:30:02.200Z,102190
2023-02-02T10:31:01.036Z,102190
2023-02-02T10:32:10.851Z,102190
2023-02-02T10:33:05.164Z,102200
2023-02-02T10:34:05.611Z,102200
2023-02-02T10:35:13.628Z,102190
2023-02-02T10:36:00.665Z,102190
2023-02-02T10:37:10.593Z,102190
2023-02-02T10:38:07.474Z,102190
2023-02-02T10:39:08.433Z,102200
2023-02-02T10:40:04.092Z,102200
2023-02-02T10:41:10.596Z,102200
2023-02-02T10:42:10.584Z,102200
2023-02-02T10:43:01.668Z,102200
2023-02-02T10:44:01.675Z,102200
2023-02-02T10:45:02.906Z,102200
2023-02-02T10:46:02.253Z,102200
2023-02-02T10:47:03.116Z,102190
2023-02-02T10:48:01.061Z,102190
2023-02-02T10:49:08.119Z,102190
2023-02-02T10:50:01.639Z,102190
2023-02-02T10:51:04.771Z,102190
2023-02-02T10:53:01.032Z,102200
2023-02-02T10:54:01.836Z,102200
2023-02-02T10:55:04.781Z,102200
2023-02-02T10:56:00.348Z,102200
2023-02-02T10:57:03.563Z,102200
2023-02-02T10:58:07.528Z,102200
2023-02-02T10:59:04.819Z,102210
2023-02-02T11:00:03.774Z,102210
2023-02-02T11:01:00.510Z,102210
2023-02-02T11:02:08.675Z,102210
2023-02-02T11:03:00.606Z,102220
2023-02-02T11:04:00.386Z,102220
2023-02-02T11:05:00.396Z,102220
2023-02-02T11:06:01.756Z,102220
2023-02-02T11:07:01.613Z,102210
2023-02-02T11:08:00.795Z,102210
2023-02-02T11:09:00.330Z,102230
2023-02-02T11:10:00.367Z,102230
2023-02-02T11:11:10.289Z,102220
2023-02-02T11:12:03.827Z,102220
2023-02-02T11:13:01.996Z,102210
2023-02-02T11:14:03.078Z,102210
2023-02-02T11:15:01.825Z,102210
2023-02-02T11:16:10.328Z,102210
2023-02-02T11:17:02.229Z,102200
2023-02-02T11:18:10.264Z,102200
2023-02-02T11:19:00.393Z,102200
2023-02-02T11:20:00.447Z,102200
2023-02-02T11:21:00.340Z,102200
2023-02-02T11:22:01.362Z,102200
2023-02-02T11:23:01.261Z,102210
2023-02-02T11:24:02.059Z,102210
2023-02-02T11:25:02.344Z,102200
2023-02-02T11:26:01.182Z,102200
2023-02-02T11:27:03.694Z,102210
2023-02-02T11:28:08.915Z,102210
2023-02-02T11:29:01.159Z,102200
2023-02-02T11:30:09.040Z,102200
2023-02-02T11:31:00.842Z,102210
2023-02-02T11:32:10.283Z,102210
2023-02-02T11:33:10.288Z,102220
2023-02-02T11:34:10.265Z,102220
2023-02-02T11:35:01.324Z,102210
2023-02-02T11:36:03.037Z,102210
2023-02-02T11:37:00.316Z,102210
2023-02-02T11:38:10.295Z,102210
2023-02-02T11:39:10.266Z,102200
2023-02-02T11:40:10.264Z,102200
2023-02-02T11:41:04.140Z,102200
2023-02-02T11:42:03.109Z,102200
2023-02-02T11:43:03.074Z,102200
2023-02-02T11:45:00.853Z,102210
2023-02-02T11:46:03.207Z,102210
2023-02-02T11:47:02.548Z,102200
2023-02-02T11:48:05.644Z,102200
2023-02-02T11:49:03.031Z,102200
2023-02-02T11:50:01.443Z,102200
2023-02-02T11:51:01.871Z,102200
2023-02-02T11:52:03.313Z,102200
2023-02-02T11:53:00.709Z,102200
2023-02-02T11:54:03.965Z,102200
2023-02-02T11:55:07.831Z,102190
2023-02-02T11:56:04.865Z,102190
2023-02-02T11:57:02.937Z,102200
2023-02-02T11:58:12.070Z,102200
2023-02-02T11:59:00.680Z,102190
2023-02-02T12:00:07.934Z,102190
2023-02-02T12:01:01.640Z,102190
2023-02-02T12:02:10.657Z,102190
2023-02-02T12:03:00.624Z,102190
2023-02-02T12:04:02.366Z,102190
2023-02-02T12:05:10.602Z,102200
2023-02-02T12:06:10.576Z,102200
2023-02-02T12:07:00.647Z,102200
2023-02-02T12:08:00.672Z,102200
2023-02-02T12:09:01.683Z,102200
2023-02-02T12:10:05.777Z,102200
2023-02-02T12:11:01.680Z,102200
2023-02-02T12:12:08.043Z,102200
2023-02-02T12:13:10.584Z,102200
2023-02-02T12:14:07.554Z,102200
2023-02-02T12:15:00.655Z,102200
2023-02-02T12:16:10.611Z,102200
2023-02-02T12:17:06.291Z,102210
2023-02-02T12:18:07.111Z,102210
2023-02-02T12:19:08.870Z,102200
2023-02-02T12:20:08.093Z,102200
2023-02-02T12:21:03.611Z,102210
2023-02-02T12:22:08.903Z,102210
2023-02-02T12:23:10.598Z,102200
2023-02-02T12:24:03.884Z,102200
2023-02-02T12:25:01.628Z,102200
2023-02-02T12:26:10.557Z,102200
2023-02-02T12:27:10.583Z,102210
2023-02-02T12:28:11.579Z,102210
2023-02-02T12:29:00.656Z,102200
2023-02-02T12:30:00.658Z,102200
2023-02-02T12:31:10.743Z,102200
2023-02-02T12:32:10.558Z,102200
2023-02-02T12:33:10.614Z,102200
2023-02-02T12:34:11.943Z,102200
2023-02-02T12:35:10.572Z,102200
2023-02-02T12:36:10.585Z,102200